Terminal Aerodrome Forecast
Issued by NWS

Home | Current Version | Previous Version | Text Only | Print | Product List | Glossary On
Versions: 1 2 3 4 5 6 7 8 9 10 11 12 13 14 15 16 17 18 19
000
FTUS44 KCRP 230500
TAFLRD
TAF
KLRD 230539Z 2306/2406 12006KT P6SM BKN080
      TEMPO 2311/2314 5SM BR
     FM231500 06008KT P6SM SCT035 BKN100
     FM232100 09012KT P6SM SCT060=

USA.gov is the U.S. government's official web portal to all federal, state and local government web resources and services.